sensor_id;sensor_type;location;lat;lon;timestamp;P1;durP1;ratioP1;P2;durP2;ratioP2
11807;SDS011;5961;42.640;23.380;2023-04-01T00:01:24;13.70;;;6.00;;
11807;SDS011;5961;42.640;23.380;2023-04-01T00:03:51;11.37;;;6.93;;
11807;SDS011;5961;42.640;23.380;2023-04-01T00:06:19;11.87;;;7.40;;
11807;SDS011;5961;42.640;23.380;2023-04-01T00:08:45;11.10;;;7.93;;
11807;SDS011;5961;42.640;23.380;2023-04-01T00:11:12;12.10;;;7.73;;
11807;SDS011;5961;42.640;23.380;2023-04-01T00:13:39;14.13;;;7.07;;
11807;SDS011;5961;42.640;23.380;2023-04-01T00:16:07;12.40;;;7.00;;
11807;SDS011;5961;42.640;23.380;2023-04-01T00:18:35;13.00;;;7.20;;
11807;SDS011;5961;42.640;23.380;2023-04-01T00:21:02;13.80;;;7.23;;
11807;SDS011;5961;42.640;23.380;2023-04-01T00:23:29;13.83;;;7.47;;
11807;SDS011;5961;42.640;23.380;2023-04-01T00:25:56;13.43;;;7.90;;
11807;SDS011;5961;42.640;23.380;2023-04-01T00:28:25;13.10;;;7.73;;
11807;SDS011;5961;42.640;23.380;2023-04-01T00:30:51;11.47;;;7.40;;
11807;SDS011;5961;42.640;23.380;2023-04-01T00:33:18;11.83;;;6.83;;
11807;SDS011;5961;42.640;23.380;2023-04-01T00:35:46;14.40;;;7.00;;
11807;SDS011;5961;42.640;23.380;2023-04-01T00:38:13;11.60;;;7.00;;
11807;SDS011;5961;42.640;23.380;2023-04-01T00:40:42;12.33;;;6.53;;
11807;SDS011;5961;42.640;23.380;2023-04-01T00:43:11;9.07;;;5.70;;
11807;SDS011;5961;42.640;23.380;2023-04-01T00:45:40;14.10;;;6.30;;
11807;SDS011;5961;42.640;23.380;2023-04-01T00:48:09;10.00;;;6.20;;
11807;SDS011;5961;42.640;23.380;2023-04-01T00:50:38;10.43;;;5.90;;
11807;SDS011;5961;42.640;23.380;2023-04-01T00:53:08;11.23;;;5.50;;
11807;SDS011;5961;42.640;23.380;2023-04-01T00:55:36;9.97;;;5.40;;
11807;SDS011;5961;42.640;23.380;2023-04-01T00:58:08;9.63;;;5.07;;
11807;SDS011;5961;42.640;23.380;2023-04-01T01:00:41;7.80;;;5.17;;
11807;SDS011;5961;42.640;23.380;2023-04-01T01:03:08;8.83;;;4.80;;
11807;SDS011;5961;42.640;23.380;2023-04-01T01:05:38;8.77;;;4.93;;
11807;SDS011;5961;42.640;23.380;2023-04-01T01:08:22;8.67;;;5.20;;
11807;SDS011;5961;42.640;23.380;2023-04-01T01:11:01;8.73;;;5.57;;
11807;SDS011;5961;42.640;23.380;2023-04-01T01:13:31;12.03;;;5.33;;
11807;SDS011;5961;42.640;23.380;2023-04-01T01:16:03;7.97;;;5.03;;
11807;SDS011;5961;42.640;23.380;2023-04-01T01:18:39;8.70;;;5.73;;
11807;SDS011;5961;42.640;23.380;2023-04-01T01:21:30;8.87;;;5.07;;
11807;SDS011;5961;42.640;23.380;2023-04-01T01:24:15;9.60;;;5.03;;
11807;SDS011;5961;42.640;23.380;2023-04-01T01:26:53;9.87;;;4.70;;
11807;SDS011;5961;42.640;23.380;2023-04-01T01:35:30;8.80;;;4.87;;
11807;SDS011;5961;42.640;23.380;2023-04-01T01:37:59;8.67;;;4.70;;
11807;SDS011;5961;42.640;23.380;2023-04-01T01:40:30;6.70;;;4.10;;
11807;SDS011;5961;42.640;23.380;2023-04-01T01:43:01;7.30;;;3.53;;
11807;SDS011;5961;42.640;23.380;2023-04-01T01:45:32;7.20;;;3.67;;
11807;SDS011;5961;42.640;23.380;2023-04-01T01:48:02;9.07;;;3.70;;
11807;SDS011;5961;42.640;23.380;2023-04-01T01:50:32;8.00;;;3.80;;
11807;SDS011;5961;42.640;23.380;2023-04-01T01:53:03;6.53;;;4.20;;
11807;SDS011;5961;42.640;23.380;2023-04-01T01:55:32;6.23;;;4.00;;
11807;SDS011;5961;42.640;23.380;2023-04-01T01:58:02;10.93;;;3.60;;
11807;SDS011;5961;42.640;23.380;2023-04-01T02:00:33;7.80;;;3.80;;
11807;SDS011;5961;42.640;23.380;2023-04-01T02:03:01;5.67;;;3.57;;
11807;SDS011;5961;42.640;23.380;2023-04-01T02:05:28;12.57;;;4.27;;
11807;SDS011;5961;42.640;23.380;2023-04-01T02:08:00;9.90;;;3.97;;
11807;SDS011;5961;42.640;23.380;2023-04-01T02:10:31;6.87;;;3.70;;
11807;SDS011;5961;42.640;23.380;2023-04-01T02:13:04;12.07;;;3.63;;
11807;SDS011;5961;42.640;23.380;2023-04-01T02:15:34;6.03;;;3.57;;
11807;SDS011;5961;42.640;23.380;2023-04-01T02:18:07;6.17;;;3.90;;
11807;SDS011;5961;42.640;23.380;2023-04-01T02:20:34;8.73;;;4.00;;
11807;SDS011;5961;42.640;23.380;2023-04-01T02:23:05;6.83;;;4.13;;
11807;SDS011;5961;42.640;23.380;2023-04-01T02:25:34;6.37;;;3.60;;
11807;SDS011;5961;42.640;23.380;2023-04-01T02:28:02;7.17;;;3.80;;
11807;SDS011;5961;42.640;23.380;2023-04-01T02:30:33;6.87;;;3.50;;
11807;SDS011;5961;42.640;23.380;2023-04-01T02:33:02;7.70;;;3.73;;
11807;SDS011;5961;42.640;23.380;2023-04-01T02:35:30;7.37;;;3.70;;
11807;SDS011;5961;42.640;23.380;2023-04-01T02:37:58;7.97;;;3.80;;
11807;SDS011;5961;42.640;23.380;2023-04-01T02:40:27;7.43;;;3.90;;
11807;SDS011;5961;42.640;23.380;2023-04-01T02:42:53;7.97;;;3.80;;
11807;SDS011;5961;42.640;23.380;2023-04-01T02:45:20;9.67;;;4.03;;
11807;SDS011;5961;42.640;23.380;2023-04-01T02:47:47;7.03;;;3.50;;
11807;SDS011;5961;42.640;23.380;2023-04-01T02:50:14;7.13;;;4.23;;
11807;SDS011;5961;42.640;23.380;2023-04-01T02:52:41;7.83;;;3.83;;
11807;SDS011;5961;42.640;23.380;2023-04-01T02:55:08;6.23;;;3.30;;
11807;SDS011;5961;42.640;23.380;2023-04-01T02:57:36;9.03;;;3.70;;
11807;SDS011;5961;42.640;23.380;2023-04-01T03:00:03;5.27;;;3.60;;
11807;SDS011;5961;42.640;23.380;2023-04-01T03:02:36;11.80;;;4.07;;
11807;SDS011;5961;42.640;23.380;2023-04-01T03:05:03;6.33;;;3.57;;
11807;SDS011;5961;42.640;23.380;2023-04-01T03:07:31;9.53;;;4.30;;
11807;SDS011;5961;42.640;23.380;2023-04-01T03:09:57;10.50;;;4.00;;
11807;SDS011;5961;42.640;23.380;2023-04-01T03:12:24;11.47;;;3.97;;
11807;SDS011;5961;42.640;23.380;2023-04-01T03:14:52;7.27;;;4.10;;
11807;SDS011;5961;42.640;23.380;2023-04-01T03:17:19;8.70;;;3.80;;
11807;SDS011;5961;42.640;23.380;2023-04-01T03:19:45;9.60;;;4.53;;
11807;SDS011;5961;42.640;23.380;2023-04-01T03:22:12;11.90;;;4.30;;
11807;SDS011;5961;42.640;23.380;2023-04-01T03:24:39;8.93;;;4.33;;
11807;SDS011;5961;42.640;23.380;2023-04-01T03:27:06;7.73;;;4.07;;
11807;SDS011;5961;42.640;23.380;2023-04-01T03:29:33;6.10;;;2.97;;
11807;SDS011;5961;42.640;23.380;2023-04-01T03:32:01;8.07;;;3.70;;
11807;SDS011;5961;42.640;23.380;2023-04-01T03:34:27;8.97;;;4.80;;
11807;SDS011;5961;42.640;23.380;2023-04-01T03:36:54;7.10;;;3.20;;
11807;SDS011;5961;42.640;23.380;2023-04-01T03:39:21;6.00;;;3.47;;
11807;SDS011;5961;42.640;23.380;2023-04-01T03:41:48;8.73;;;3.90;;
11807;SDS011;5961;42.640;23.380;2023-04-01T03:44:14;9.63;;;5.07;;
11807;SDS011;5961;42.640;23.380;2023-04-01T03:46:41;8.70;;;4.60;;
11807;SDS011;5961;42.640;23.380;2023-04-01T03:49:09;9.87;;;4.87;;
11807;SDS011;5961;42.640;23.380;2023-04-01T03:51:37;12.57;;;4.57;;
11807;SDS011;5961;42.640;23.380;2023-04-01T03:54:04;11.10;;;4.17;;
11807;SDS011;5961;42.640;23.380;2023-04-01T03:56:31;10.90;;;4.30;;
11807;SDS011;5961;42.640;23.380;2023-04-01T03:58:58;8.33;;;5.27;;
11807;SDS011;5961;42.640;23.380;2023-04-01T04:01:28;10.30;;;6.17;;
11807;SDS011;5961;42.640;23.380;2023-04-01T04:03:55;10.30;;;6.00;;
11807;SDS011;5961;42.640;23.380;2023-04-01T04:06:24;12.30;;;5.77;;
11807;SDS011;5961;42.640;23.380;2023-04-01T04:08:51;12.33;;;6.23;;
11807;SDS011;5961;42.640;23.380;2023-04-01T04:11:18;16.23;;;6.83;;
11807;SDS011;5961;42.640;23.380;2023-04-01T04:13:46;9.83;;;6.03;;
11807;SDS011;5961;42.640;23.380;2023-04-01T04:16:14;10.43;;;6.27;;
11807;SDS011;5961;42.640;23.380;2023-04-01T04:18:41;13.80;;;5.80;;
11807;SDS011;5961;42.640;23.380;2023-04-01T04:21:10;9.10;;;6.20;;
11807;SDS011;5961;42.640;23.380;2023-04-01T04:23:39;10.10;;;5.87;;
11807;SDS011;5961;42.640;23.380;2023-04-01T04:26:06;11.27;;;5.77;;
11807;SDS011;5961;42.640;23.380;2023-04-01T04:28:34;12.77;;;5.93;;
11807;SDS011;5961;42.640;23.380;2023-04-01T04:31:02;7.10;;;5.57;;
11807;SDS011;5961;42.640;23.380;2023-04-01T04:33:29;9.60;;;5.40;;
11807;SDS011;5961;42.640;23.380;2023-04-01T04:35:57;6.47;;;4.37;;
11807;SDS011;5961;42.640;23.380;2023-04-01T04:38:25;9.33;;;4.57;;
11807;SDS011;5961;42.640;23.380;2023-04-01T04:40:54;7.83;;;4.43;;
11807;SDS011;5961;42.640;23.380;2023-04-01T04:43:21;9.93;;;5.03;;
11807;SDS011;5961;42.640;23.380;2023-04-01T04:45:47;6.47;;;4.10;;
11807;SDS011;5961;42.640;23.380;2023-04-01T04:48:15;8.53;;;4.37;;
11807;SDS011;5961;42.640;23.380;2023-04-01T04:50:43;8.60;;;4.20;;
11807;SDS011;5961;42.640;23.380;2023-04-01T04:53:10;8.47;;;4.33;;
11807;SDS011;5961;42.640;23.380;2023-04-01T04:55:38;6.07;;;3.90;;
11807;SDS011;5961;42.640;23.380;2023-04-01T04:58:10;8.30;;;4.23;;
11807;SDS011;5961;42.640;23.380;2023-04-01T05:00:37;8.40;;;4.30;;
11807;SDS011;5961;42.640;23.380;2023-04-01T05:03:03;7.13;;;3.70;;
11807;SDS011;5961;42.640;23.380;2023-04-01T05:05:30;8.63;;;4.43;;
11807;SDS011;5961;42.640;23.380;2023-04-01T05:07:57;5.70;;;3.50;;
11807;SDS011;5961;42.640;23.380;2023-04-01T05:10:24;7.47;;;3.70;;
11807;SDS011;5961;42.640;23.380;2023-04-01T05:12:50;8.60;;;4.63;;
11807;SDS011;5961;42.640;23.380;2023-04-01T05:15:19;6.83;;;3.50;;
11807;SDS011;5961;42.640;23.380;2023-04-01T05:17:45;18.13;;;4.87;;
11807;SDS011;5961;42.640;23.380;2023-04-01T05:20:12;9.07;;;4.57;;
11807;SDS011;5961;42.640;23.380;2023-04-01T05:22:40;8.63;;;4.67;;
11807;SDS011;5961;42.640;23.380;2023-04-01T05:25:08;8.07;;;4.10;;
11807;SDS011;5961;42.640;23.380;2023-04-01T05:27:35;5.67;;;3.87;;
11807;SDS011;5961;42.640;23.380;2023-04-01T05:30:02;12.33;;;4.37;;
11807;SDS011;5961;42.640;23.380;2023-04-01T05:32:31;10.33;;;4.50;;
11807;SDS011;5961;42.640;23.380;2023-04-01T05:34:58;7.73;;;4.53;;
11807;SDS011;5961;42.640;23.380;2023-04-01T05:37:25;9.07;;;5.50;;
11807;SDS011;5961;42.640;23.380;2023-04-01T05:39:52;12.00;;;5.97;;
11807;SDS011;5961;42.640;23.380;2023-04-01T05:42:18;7.93;;;4.60;;
11807;SDS011;5961;42.640;23.380;2023-04-01T05:44:45;7.80;;;5.10;;
11807;SDS011;5961;42.640;23.380;2023-04-01T05:47:12;7.60;;;5.50;;
11807;SDS011;5961;42.640;23.380;2023-04-01T05:49:40;8.13;;;5.73;;
11807;SDS011;5961;42.640;23.380;2023-04-01T05:52:07;9.03;;;5.13;;
11807;SDS011;5961;42.640;23.380;2023-04-01T05:54:34;7.27;;;4.93;;
11807;SDS011;5961;42.640;23.380;2023-04-01T05:57:01;7.97;;;5.07;;
11807;SDS011;5961;42.640;23.380;2023-04-01T05:59:28;11.03;;;5.67;;
11807;SDS011;5961;42.640;23.380;2023-04-01T06:01:56;10.43;;;5.40;;
11807;SDS011;5961;42.640;23.380;2023-04-01T06:04:23;8.40;;;5.67;;
11807;SDS011;5961;42.640;23.380;2023-04-01T06:06:51;16.37;;;6.50;;
11807;SDS011;5961;42.640;23.380;2023-04-01T06:09:19;8.83;;;5.33;;
11807;SDS011;5961;42.640;23.380;2023-04-01T06:12:04;10.80;;;5.63;;
11807;SDS011;5961;42.640;23.380;2023-04-01T06:14:45;12.07;;;5.80;;
11807;SDS011;5961;42.640;23.380;2023-04-01T06:17:23;8.23;;;4.40;;
11807;SDS011;5961;42.640;23.380;2023-04-01T06:19:57;11.13;;;7.63;;
11807;SDS011;5961;42.640;23.380;2023-04-01T06:22:40;7.27;;;4.63;;
11807;SDS011;5961;42.640;23.380;2023-04-01T06:31:06;12.90;;;5.60;;
11807;SDS011;5961;42.640;23.380;2023-04-01T06:33:45;10.93;;;4.97;;
11807;SDS011;5961;42.640;23.380;2023-04-01T06:39:31;10.80;;;4.80;;
11807;SDS011;5961;42.640;23.380;2023-04-01T06:42:18;13.10;;;4.80;;
11807;SDS011;5961;42.640;23.380;2023-04-01T06:44:54;8.53;;;5.20;;
11807;SDS011;5961;42.640;23.380;2023-04-01T06:47:34;11.30;;;5.07;;
11807;SDS011;5961;42.640;23.380;2023-04-01T06:50:12;7.53;;;4.57;;
11807;SDS011;5961;42.640;23.380;2023-04-01T06:52:50;10.33;;;5.30;;
11807;SDS011;5961;42.640;23.380;2023-04-01T06:55:27;8.93;;;5.40;;
11807;SDS011;5961;42.640;23.380;2023-04-01T06:58:00;7.87;;;4.80;;
11807;SDS011;5961;42.640;23.380;2023-04-01T07:00:32;10.07;;;5.20;;
11807;SDS011;5961;42.640;23.380;2023-04-01T07:03:04;9.77;;;5.20;;
11807;SDS011;5961;42.640;23.380;2023-04-01T07:05:36;8.40;;;5.20;;
11807;SDS011;5961;42.640;23.380;2023-04-01T07:08:04;10.33;;;5.40;;
11807;SDS011;5961;42.640;23.380;2023-04-01T07:10:39;8.33;;;5.20;;
11807;SDS011;5961;42.640;23.380;2023-04-01T07:13:13;9.20;;;5.87;;
11807;SDS011;5961;42.640;23.380;2023-04-01T07:15:54;10.20;;;5.40;;
11807;SDS011;5961;42.640;23.380;2023-04-01T07:18:28;8.03;;;5.37;;
11807;SDS011;5961;42.640;23.380;2023-04-01T07:20:58;9.03;;;5.53;;
11807;SDS011;5961;42.640;23.380;2023-04-01T07:23:26;9.10;;;5.67;;
11807;SDS011;5961;42.640;23.380;2023-04-01T07:26:03;6.57;;;5.00;;
11807;SDS011;5961;42.640;23.380;2023-04-01T07:28:37;10.93;;;5.27;;
11807;SDS011;5961;42.640;23.380;2023-04-01T07:31:07;12.70;;;5.30;;
11807;SDS011;5961;42.640;23.380;2023-04-01T07:33:44;10.13;;;5.37;;
11807;SDS011;5961;42.640;23.380;2023-04-01T07:36:20;12.37;;;5.80;;
11807;SDS011;5961;42.640;23.380;2023-04-01T07:38:55;9.47;;;4.73;;
11807;SDS011;5961;42.640;23.380;2023-04-01T07:41:30;9.33;;;4.77;;
11807;SDS011;5961;42.640;23.380;2023-04-01T07:44:08;10.93;;;5.10;;
11807;SDS011;5961;42.640;23.380;2023-04-01T07:46:49;11.73;;;5.13;;
11807;SDS011;5961;42.640;23.380;2023-04-01T07:49:28;9.90;;;5.53;;
11807;SDS011;5961;42.640;23.380;2023-04-01T07:52:04;13.50;;;5.47;;
11807;SDS011;5961;42.640;23.380;2023-04-01T07:54:37;7.70;;;4.97;;
11807;SDS011;5961;42.640;23.380;2023-04-01T07:57:10;8.20;;;5.37;;
11807;SDS011;5961;42.640;23.380;2023-04-01T07:59:43;8.73;;;4.90;;
11807;SDS011;5961;42.640;23.380;2023-04-01T08:02:25;11.93;;;5.10;;
11807;SDS011;5961;42.640;23.380;2023-04-01T08:05:00;9.90;;;5.20;;
11807;SDS011;5961;42.640;23.380;2023-04-01T08:07:40;12.37;;;5.27;;
11807;SDS011;5961;42.640;23.380;2023-04-01T08:10:13;13.27;;;5.17;;
11807;SDS011;5961;42.640;23.380;2023-04-01T08:12:51;16.53;;;5.53;;
11807;SDS011;5961;42.640;23.380;2023-04-01T08:15:25;9.57;;;5.43;;
11807;SDS011;5961;42.640;23.380;2023-04-01T08:17:58;9.83;;;5.47;;
11807;SDS011;5961;42.640;23.380;2023-04-01T08:20:33;12.70;;;5.37;;
11807;SDS011;5961;42.640;23.380;2023-04-01T08:23:07;8.37;;;4.83;;
11807;SDS011;5961;42.640;23.380;2023-04-01T08:25:40;14.40;;;5.50;;
11807;SDS011;5961;42.640;23.380;2023-04-01T08:28:15;8.57;;;4.93;;
11807;SDS011;5961;42.640;23.380;2023-04-01T08:30:47;13.97;;;5.30;;
11807;SDS011;5961;42.640;23.380;2023-04-01T08:33:19;11.40;;;5.93;;
11807;SDS011;5961;42.640;23.380;2023-04-01T08:35:52;8.87;;;5.57;;
11807;SDS011;5961;42.640;23.380;2023-04-01T08:38:26;12.37;;;5.00;;
11807;SDS011;5961;42.640;23.380;2023-04-01T08:40:56;12.13;;;5.77;;
11807;SDS011;5961;42.640;23.380;2023-04-01T08:43:42;7.93;;;4.90;;
11807;SDS011;5961;42.640;23.380;2023-04-01T08:46:27;12.03;;;5.27;;
11807;SDS011;5961;42.640;23.380;2023-04-01T08:49:17;13.03;;;5.87;;
11807;SDS011;5961;42.640;23.380;2023-04-01T08:57:56;11.73;;;5.17;;
11807;SDS011;5961;42.640;23.380;2023-04-01T09:00:43;13.83;;;5.00;;
11807;SDS011;5961;42.640;23.380;2023-04-01T09:03:26;13.33;;;4.93;;
11807;SDS011;5961;42.640;23.380;2023-04-01T09:09:12;9.57;;;4.67;;
11807;SDS011;5961;42.640;23.380;2023-04-01T09:12:15;9.63;;;3.97;;
11807;SDS011;5961;42.640;23.380;2023-04-01T09:27:38;9.47;;;4.40;;
11807;SDS011;5961;42.640;23.380;2023-04-01T09:30:19;8.47;;;4.37;;
11807;SDS011;5961;42.640;23.380;2023-04-01T09:36:24;8.30;;;4.00;;
11807;SDS011;5961;42.640;23.380;2023-04-01T09:39:10;10.33;;;4.20;;
11807;SDS011;5961;42.640;23.380;2023-04-01T09:42:06;11.07;;;3.90;;
11807;SDS011;5961;42.640;23.380;2023-04-01T09:44:43;6.33;;;3.80;;
11807;SDS011;5961;42.640;23.380;2023-04-01T09:47:22;5.87;;;3.70;;
11807;SDS011;5961;42.640;23.380;2023-04-01T09:50:06;9.53;;;5.30;;
11807;SDS011;5961;42.640;23.380;2023-04-01T09:52:51;5.47;;;3.43;;
11807;SDS011;5961;42.640;23.380;2023-04-01T09:55:39;11.57;;;3.40;;
11807;SDS011;5961;42.640;23.380;2023-04-01T09:59:00;17.47;;;5.60;;
11807;SDS011;5961;42.640;23.380;2023-04-01T10:05:04;9.63;;;4.40;;
11807;SDS011;5961;42.640;23.380;2023-04-01T10:14:31;9.33;;;3.90;;
11807;SDS011;5961;42.640;23.380;2023-04-01T10:17:29;6.47;;;3.93;;
11807;SDS011;5961;42.640;23.380;2023-04-01T10:23:19;9.63;;;4.10;;
11807;SDS011;5961;42.640;23.380;2023-04-01T10:26:07;10.80;;;4.00;;
11807;SDS011;5961;42.640;23.380;2023-04-01T10:31:51;9.37;;;5.33;;
11807;SDS011;5961;42.640;23.380;2023-04-01T10:40:44;10.00;;;5.80;;
11807;SDS011;5961;42.640;23.380;2023-04-01T11:05:24;13.13;;;5.53;;
11807;SDS011;5961;42.640;23.380;2023-04-01T11:26:31;3.90;;;2.40;;
11807;SDS011;5961;42.640;23.380;2023-04-01T11:29:14;2.70;;;2.30;;
11807;SDS011;5961;42.640;23.380;2023-04-01T11:31:55;5.03;;;2.67;;
11807;SDS011;5961;42.640;23.380;2023-04-01T11:34:39;8.00;;;2.60;;
11807;SDS011;5961;42.640;23.380;2023-04-01T11:37:18;4.00;;;2.07;;
11807;SDS011;5961;42.640;23.380;2023-04-01T11:39:59;5.80;;;2.40;;
11807;SDS011;5961;42.640;23.380;2023-04-01T11:42:37;8.30;;;2.70;;
11807;SDS011;5961;42.640;23.380;2023-04-01T11:45:23;3.73;;;2.47;;
11807;SDS011;5961;42.640;23.380;2023-04-01T11:48:09;4.10;;;2.30;;
11807;SDS011;5961;42.640;23.380;2023-04-01T11:53:54;6.80;;;2.30;;
11807;SDS011;5961;42.640;23.380;2023-04-01T11:56:31;5.07;;;2.50;;
11807;SDS011;5961;42.640;23.380;2023-04-01T12:02:16;5.50;;;2.67;;
11807;SDS011;5961;42.640;23.380;2023-04-01T12:05:11;8.67;;;2.80;;
11807;SDS011;5961;42.640;23.380;2023-04-01T12:07:53;6.50;;;3.03;;
11807;SDS011;5961;42.640;23.380;2023-04-01T12:10:32;5.40;;;3.27;;
11807;SDS011;5961;42.640;23.380;2023-04-01T12:15:36;8.37;;;4.00;;
11807;SDS011;5961;42.640;23.380;2023-04-01T12:18:24;9.80;;;3.63;;
11807;SDS011;5961;42.640;23.380;2023-04-01T12:21:02;5.93;;;3.10;;
11807;SDS011;5961;42.640;23.380;2023-04-01T12:23:51;7.33;;;2.90;;
11807;SDS011;5961;42.640;23.380;2023-04-01T12:26:35;5.20;;;3.00;;
11807;SDS011;5961;42.640;23.380;2023-04-01T12:29:28;4.53;;;2.80;;
11807;SDS011;5961;42.640;23.380;2023-04-01T12:32:18;6.80;;;3.03;;
11807;SDS011;5961;42.640;23.380;2023-04-01T12:34:59;4.97;;;2.90;;
11807;SDS011;5961;42.640;23.380;2023-04-01T12:37:42;5.63;;;2.73;;
11807;SDS011;5961;42.640;23.380;2023-04-01T12:40:21;4.37;;;2.90;;
11807;SDS011;5961;42.640;23.380;2023-04-01T12:42:59;6.13;;;3.20;;
11807;SDS011;5961;42.640;23.380;2023-04-01T12:45:38;7.30;;;3.77;;
11807;SDS011;5961;42.640;23.380;2023-04-01T12:48:16;6.07;;;3.57;;
11807;SDS011;5961;42.640;23.380;2023-04-01T12:51:13;9.77;;;3.30;;
11807;SDS011;5961;42.640;23.380;2023-04-01T12:56:53;9.43;;;3.73;;
11807;SDS011;5961;42.640;23.380;2023-04-01T12:59:44;4.90;;;3.13;;
11807;SDS011;5961;42.640;23.380;2023-04-01T13:02:25;7.20;;;3.63;;
11807;SDS011;5961;42.640;23.380;2023-04-01T13:08:16;8.33;;;4.43;;
11807;SDS011;5961;42.640;23.380;2023-04-01T13:11:02;7.13;;;3.93;;
11807;SDS011;5961;42.640;23.380;2023-04-01T13:16:41;6.70;;;3.40;;
11807;SDS011;5961;42.640;23.380;2023-04-01T13:19:19;7.57;;;3.93;;
11807;SDS011;5961;42.640;23.380;2023-04-01T13:21:53;3.77;;;2.57;;
11807;SDS011;5961;42.640;23.380;2023-04-01T13:24:30;4.53;;;2.73;;
11807;SDS011;5961;42.640;23.380;2023-04-01T13:27:06;3.80;;;2.30;;
11807;SDS011;5961;42.640;23.380;2023-04-01T13:29:38;3.37;;;2.13;;
11807;SDS011;5961;42.640;23.380;2023-04-01T13:32:20;4.80;;;2.10;;
11807;SDS011;5961;42.640;23.380;2023-04-01T13:35:00;3.30;;;2.40;;
11807;SDS011;5961;42.640;23.380;2023-04-01T13:37:43;3.27;;;2.67;;
11807;SDS011;5961;42.640;23.380;2023-04-01T13:40:25;4.70;;;3.13;;
11807;SDS011;5961;42.640;23.380;2023-04-01T13:43:01;2.90;;;2.60;;
11807;SDS011;5961;42.640;23.380;2023-04-01T13:45:32;3.37;;;3.07;;
11807;SDS011;5961;42.640;23.380;2023-04-01T13:48:18;3.20;;;2.00;;
11807;SDS011;5961;42.640;23.380;2023-04-01T13:51:04;2.17;;;1.97;;
11807;SDS011;5961;42.640;23.380;2023-04-01T13:56:49;2.97;;;2.23;;
11807;SDS011;5961;42.640;23.380;2023-04-01T13:59:29;2.17;;;1.90;;
11807;SDS011;5961;42.640;23.380;2023-04-01T14:05:23;4.77;;;3.33;;
11807;SDS011;5961;42.640;23.380;2023-04-01T14:08:00;2.63;;;2.20;;
11807;SDS011;5961;42.640;23.380;2023-04-01T14:10:39;4.77;;;4.07;;
11807;SDS011;5961;42.640;23.380;2023-04-01T14:13:14;8.30;;;4.50;;
11807;SDS011;5961;42.640;23.380;2023-04-01T14:15:52;8.40;;;4.87;;
11807;SDS011;5961;42.640;23.380;2023-04-01T14:18:42;8.23;;;4.60;;
11807;SDS011;5961;42.640;23.380;2023-04-01T14:21:27;5.77;;;4.40;;
11807;SDS011;5961;42.640;23.380;2023-04-01T14:33:12;5.47;;;4.13;;
11807;SDS011;5961;42.640;23.380;2023-04-01T14:35:52;4.47;;;3.30;;
11807;SDS011;5961;42.640;23.380;2023-04-01T14:38:29;6.07;;;4.07;;
11807;SDS011;5961;42.640;23.380;2023-04-01T14:41:06;6.73;;;4.10;;
11807;SDS011;5961;42.640;23.380;2023-04-01T14:43:47;7.47;;;4.07;;
11807;SDS011;5961;42.640;23.380;2023-04-01T14:46:51;6.83;;;3.60;;
11807;SDS011;5961;42.640;23.380;2023-04-01T14:49:32;5.20;;;3.23;;
11807;SDS011;5961;42.640;23.380;2023-04-01T14:52:06;5.07;;;3.10;;
11807;SDS011;5961;42.640;23.380;2023-04-01T14:54:40;6.10;;;3.70;;
11807;SDS011;5961;42.640;23.380;2023-04-01T14:57:10;6.10;;;3.60;;
11807;SDS011;5961;42.640;23.380;2023-04-01T14:59:39;4.87;;;3.47;;
11807;SDS011;5961;42.640;23.380;2023-04-01T15:02:14;5.10;;;3.37;;
11807;SDS011;5961;42.640;23.380;2023-04-01T15:05:01;5.30;;;3.30;;
11807;SDS011;5961;42.640;23.380;2023-04-01T15:10:48;4.10;;;3.10;;
11807;SDS011;5961;42.640;23.380;2023-04-01T15:16:25;6.97;;;3.40;;
11807;SDS011;5961;42.640;23.380;2023-04-01T15:19:00;7.70;;;3.80;;
11807;SDS011;5961;42.640;23.380;2023-04-01T15:21:43;7.33;;;4.10;;
11807;SDS011;5961;42.640;23.380;2023-04-01T15:24:19;4.80;;;3.53;;
11807;SDS011;5961;42.640;23.380;2023-04-01T15:32:45;6.07;;;3.90;;
11807;SDS011;5961;42.640;23.380;2023-04-01T15:35:23;9.90;;;4.37;;
11807;SDS011;5961;42.640;23.380;2023-04-01T15:37:59;11.93;;;4.63;;
11807;SDS011;5961;42.640;23.380;2023-04-01T15:40:36;7.23;;;4.20;;
11807;SDS011;5961;42.640;23.380;2023-04-01T15:43:11;8.47;;;4.10;;
11807;SDS011;5961;42.640;23.380;2023-04-01T15:45:49;5.00;;;3.27;;
11807;SDS011;5961;42.640;23.380;2023-04-01T15:48:31;5.67;;;3.60;;
11807;SDS011;5961;42.640;23.380;2023-04-01T15:51:11;6.03;;;3.87;;
11807;SDS011;5961;42.640;23.380;2023-04-01T15:53:54;6.83;;;3.90;;
11807;SDS011;5961;42.640;23.380;2023-04-01T15:59:53;2.60;;;1.90;;
11807;SDS011;5961;42.640;23.380;2023-04-01T16:02:29;2.20;;;2.00;;
11807;SDS011;5961;42.640;23.380;2023-04-01T16:05:01;2.10;;;1.90;;
11807;SDS011;5961;42.640;23.380;2023-04-01T16:07:40;2.20;;;2.00;;
11807;SDS011;5961;42.640;23.380;2023-04-01T16:10:19;2.50;;;2.30;;
11807;SDS011;5961;42.640;23.380;2023-04-01T16:12:54;4.47;;;2.80;;
11807;SDS011;5961;42.640;23.380;2023-04-01T16:15:33;5.43;;;2.60;;
11807;SDS011;5961;42.640;23.380;2023-04-01T16:18:11;2.93;;;2.60;;
11807;SDS011;5961;42.640;23.380;2023-04-01T16:20:49;3.53;;;2.87;;
11807;SDS011;5961;42.640;23.380;2023-04-01T16:23:22;2.23;;;2.03;;
11807;SDS011;5961;42.640;23.380;2023-04-01T16:25:57;2.77;;;2.37;;
11807;SDS011;5961;42.640;23.380;2023-04-01T16:28:32;3.30;;;3.00;;
11807;SDS011;5961;42.640;23.380;2023-04-01T16:31:04;2.87;;;2.60;;
11807;SDS011;5961;42.640;23.380;2023-04-01T16:33:37;3.93;;;2.70;;
11807;SDS011;5961;42.640;23.380;2023-04-01T16:36:13;2.50;;;2.30;;
11807;SDS011;5961;42.640;23.380;2023-04-01T16:38:52;3.20;;;2.80;;
11807;SDS011;5961;42.640;23.380;2023-04-01T16:41:30;4.13;;;2.80;;
11807;SDS011;5961;42.640;23.380;2023-04-01T16:43:59;2.73;;;2.50;;
11807;SDS011;5961;42.640;23.380;2023-04-01T16:46:39;3.07;;;2.73;;
11807;SDS011;5961;42.640;23.380;2023-04-01T16:49:24;2.30;;;2.10;;
11807;SDS011;5961;42.640;23.380;2023-04-01T16:51:59;2.67;;;2.00;;
11807;SDS011;5961;42.640;23.380;2023-04-01T16:54:39;2.10;;;1.90;;
11807;SDS011;5961;42.640;23.380;2023-04-01T16:57:16;2.00;;;1.80;;
11807;SDS011;5961;42.640;23.380;2023-04-01T16:59:46;2.03;;;1.93;;
11807;SDS011;5961;42.640;23.380;2023-04-01T17:02:20;2.53;;;2.00;;
11807;SDS011;5961;42.640;23.380;2023-04-01T17:04:57;1.60;;;1.50;;
11807;SDS011;5961;42.640;23.380;2023-04-01T17:07:29;1.70;;;1.60;;
11807;SDS011;5961;42.640;23.380;2023-04-01T17:10:28;1.70;;;1.60;;
11807;SDS011;5961;42.640;23.380;2023-04-01T17:13:14;1.60;;;1.50;;
11807;SDS011;5961;42.640;23.380;2023-04-01T17:15:53;1.90;;;1.50;;
11807;SDS011;5961;42.640;23.380;2023-04-01T17:18:32;1.47;;;1.37;;
11807;SDS011;5961;42.640;23.380;2023-04-01T17:21:07;1.23;;;1.20;;
11807;SDS011;5961;42.640;23.380;2023-04-01T17:23:41;1.40;;;1.30;;
11807;SDS011;5961;42.640;23.380;2023-04-01T17:26:17;1.60;;;1.50;;
11807;SDS011;5961;42.640;23.380;2023-04-01T17:28:52;1.70;;;1.60;;
11807;SDS011;5961;42.640;23.380;2023-04-01T17:31:41;1.70;;;1.60;;
11807;SDS011;5961;42.640;23.380;2023-04-01T17:34:24;1.47;;;1.37;;
11807;SDS011;5961;42.640;23.380;2023-04-01T17:37:05;1.60;;;1.50;;
11807;SDS011;5961;42.640;23.380;2023-04-01T17:39:45;1.70;;;1.60;;
11807;SDS011;5961;42.640;23.380;2023-04-01T17:42:26;1.87;;;1.70;;
11807;SDS011;5961;42.640;23.380;2023-04-01T17:45:07;1.73;;;1.63;;
11807;SDS011;5961;42.640;23.380;2023-04-01T17:47:59;2.33;;;2.00;;
11807;SDS011;5961;42.640;23.380;2023-04-01T17:50:36;1.53;;;1.43;;
11807;SDS011;5961;42.640;23.380;2023-04-01T17:53:17;2.70;;;2.00;;
11807;SDS011;5961;42.640;23.380;2023-04-01T17:55:54;1.90;;;1.80;;
11807;SDS011;5961;42.640;23.380;2023-04-01T17:58:29;2.20;;;2.00;;
11807;SDS011;5961;42.640;23.380;2023-04-01T18:01:04;1.93;;;1.73;;
11807;SDS011;5961;42.640;23.380;2023-04-01T18:03:57;2.77;;;1.90;;